Time;durP1;ratioP1;P1;durP2;ratioP2;P2;SDS_P1;SDS_P2;PMS_P1;PMS_P2;Temp;Humidity;BMP_temperature;BMP_pressure;BME280_temperature;BME280_humidity;BME280_pressure;Samples;Min_cycle;Max_cycle;Signal;HPM_P1;HPM_P2
2023/07/28 00:00:14;;;;;;;7.13;1.53;;;18.20;52.00;;;;;;5071225;28;20182;-65
2023/07/28 00:02:42;;;;;;;3.20;1.33;;;18.30;52.60;;;;;;5071943;28;20186;-65
2023/07/28 00:05:09;;;;;;;4.30;1.53;;;18.40;51.70;;;;;;5066339;28;20187;-65
2023/07/28 00:07:36;;;;;;;3.27;1.30;;;18.40;52.10;;;;;;5068211;28;20190;-67
2023/07/28 00:10:04;;;;;;;3.60;1.50;;;18.20;51.70;;;;;;5069127;28;20188;-64
2023/07/28 00:12:31;;;;;;;3.13;1.60;;;18.40;51.20;;;;;;5069615;28;20298;-65
2023/07/28 00:14:59;;;;;;;4.77;1.57;;;18.60;50.60;;;;;;5068246;28;20179;-65
2023/07/28 00:17:27;;;;;;;3.10;1.60;;;18.70;50.50;;;;;;5070354;28;20198;-66
2023/07/28 00:19:54;;;;;;;5.93;1.80;;;19.00;50.40;;;;;;5069600;28;20193;-65
2023/07/28 00:22:22;;;;;;;8.03;1.70;;;18.90;50.00;;;;;;5069639;28;20188;-64
2023/07/28 00:24:49;;;;;;;3.47;1.30;;;18.90;49.80;;;;;;5069530;28;20188;-64
2023/07/28 00:27:16;;;;;;;2.77;1.13;;;18.80;50.80;;;;;;5068742;28;20218;-66
2023/07/28 00:29:44;;;;;;;4.03;1.33;;;18.70;50.60;;;;;;5069986;28;20617;-65
2023/07/28 00:32:11;;;;;;;2.83;1.60;;;18.70;51.00;;;;;;5073041;28;20632;-64
2023/07/28 00:34:38;;;;;;;5.73;1.17;;;18.80;51.50;;;;;;5073501;28;20263;-66
2023/07/28 00:37:06;;;;;;;3.73;1.27;;;19.00;50.30;;;;;;5072833;28;20272;-65
2023/07/28 00:39:33;;;;;;;4.90;1.93;;;19.30;49.80;;;;;;5072235;28;20646;-66
2023/07/28 00:42:00;;;;;;;1.90;1.33;;;19.60;50.40;;;;;;5073623;28;20183;-65
2023/07/28 00:44:28;;;;;;;4.07;1.30;;;19.80;49.80;;;;;;5075915;28;20184;-65
2023/07/28 00:46:56;;;;;;;8.00;1.47;;;19.80;49.50;;;;;;5074347;28;20194;-65
2023/07/28 00:49:23;;;;;;;3.27;1.37;;;19.70;49.50;;;;;;5071265;28;20229;-65
2023/07/28 00:55:58;;;;;;;2.77;1.20;;;19.80;49.40;;;;;;5073843;28;20295;-65
2023/07/28 00:58:26;;;;;;;2.57;1.33;;;19.80;49.80;;;;;;5070245;28;20657;-65
2023/07/28 01:00:53;;;;;;;5.43;1.50;;;20.00;48.90;;;;;;5073201;28;20179;-66
2023/07/28 01:03:22;;;;;;;4.90;1.30;;;20.00;49.00;;;;;;5073239;28;20187;-65
2023/07/28 01:06:15;;;;;;;2.23;1.20;;;19.70;48.50;;;;;;5071214;28;20182;-65
2023/07/28 01:09:18;;;;;;;3.40;1.20;;;19.80;48.80;;;;;;5069551;28;20190;-65
2023/07/28 01:15:32;;;;;;;4.53;1.60;;;19.70;49.80;;;;;;5073650;28;20206;-64
2023/07/28 01:17:59;;;;;;;2.87;1.27;;;20.10;48.20;;;;;;5073671;28;20191;-64
2023/07/28 01:20:32;;;;;;;1.93;1.20;;;20.30;48.40;;;;;;5074533;28;20180;-63
2023/07/28 01:23:21;;;;;;;4.60;1.30;;;20.30;47.60;;;;;;5074168;28;20175;-64
2023/07/28 01:26:10;;;;;;;1.80;1.30;;;20.30;47.90;;;;;;5072638;28;20190;-64
2023/07/28 01:28:41;;;;;;;3.93;1.30;;;20.50;48.00;;;;;;5073032;28;20668;-64
2023/07/28 01:31:09;;;;;;;3.33;1.20;;;20.60;47.90;;;;;;5073520;28;20546;-62
2023/07/28 01:33:37;;;;;;;3.13;1.10;;;20.90;47.20;;;;;;5072340;28;20214;-63
2023/07/28 01:36:04;;;;;;;1.90;1.30;;;20.90;46.90;;;;;;5073695;28;20601;-64
2023/07/28 01:38:32;;;;;;;1.57;1.10;;;21.20;46.40;;;;;;5073557;28;20187;-63
2023/07/28 01:40:59;;;;;;;4.93;1.43;;;21.40;46.00;;;;;;5074894;28;20236;-65
2023/07/28 01:43:26;;;;;;;1.63;1.10;;;21.60;45.90;;;;;;5075185;28;20189;-63
2023/07/28 01:45:54;;;;;;;2.07;1.17;;;21.40;44.60;;;;;;5076371;28;20191;-66
2023/07/28 01:48:21;;;;;;;5.10;1.10;;;21.30;43.50;;;;;;5073137;28;20225;-64
2023/07/28 01:50:48;;;;;;;1.50;1.27;;;21.50;43.60;;;;;;5073638;28;20180;-66
2023/07/28 01:53:16;;;;;;;3.67;1.00;;;21.50;42.60;;;;;;5070992;28;20222;-63
2023/07/28 01:55:43;;;;;;;4.00;1.37;;;21.50;42.80;;;;;;5071590;28;20176;-65
2023/07/28 01:58:10;;;;;;;3.97;1.00;;;21.70;43.10;;;;;;5073030;28;20561;-66
2023/07/28 02:00:38;;;;;;;1.33;0.83;;;21.80;42.30;;;;;;5072856;28;20543;-65
2023/07/28 02:03:05;;;;;;;3.70;1.17;;;21.80;41.80;;;;;;5071242;28;20192;-66
2023/07/28 02:05:33;;;;;;;3.33;1.13;;;21.70;42.30;;;;;;5072623;28;20190;-64
2023/07/28 02:08:00;;;;;;;1.33;1.13;;;21.80;42.10;;;;;;5072779;28;20179;-65
2023/07/28 02:10:28;;;;;;;1.27;1.00;;;21.90;42.10;;;;;;5072700;28;20193;-65
2023/07/28 02:12:56;;;;;;;1.87;1.00;;;22.10;41.80;;;;;;5064922;28;20207;-64
2023/07/28 02:15:23;;;;;;;3.10;1.20;;;22.30;41.90;;;;;;5067337;28;20201;-64
2023/07/28 02:17:51;;;;;;;2.67;1.37;;;22.40;41.10;;;;;;5071618;28;20252;-64
2023/07/28 02:20:18;;;;;;;1.40;1.10;;;22.40;40.60;;;;;;5072678;28;20187;-64
2023/07/28 02:22:45;;;;;;;2.40;1.23;;;22.60;40.70;;;;;;5071990;28;20233;-70
2023/07/28 02:25:13;;;;;;;2.90;1.23;;;22.60;40.70;;;;;;5068480;28;20176;-64
2023/07/28 02:27:40;;;;;;;4.63;1.00;;;22.70;40.50;;;;;;5071735;28;20194;-70
2023/07/28 02:30:08;;;;;;;4.80;1.40;;;22.80;40.40;;;;;;5072307;28;20266;-66
2023/07/28 02:32:36;;;;;;;4.47;1.27;;;22.90;40.20;;;;;;5071637;28;20231;-69
2023/07/28 02:35:03;;;;;;;4.27;1.30;;;23.10;40.20;;;;;;5071991;28;20257;-72
2023/07/28 02:37:31;;;;;;;4.97;1.20;;;22.90;39.70;;;;;;5066289;28;20196;-66
2023/07/28 02:39:58;;;;;;;5.10;1.23;;;23.20;40.30;;;;;;5071864;28;20262;-70
2023/07/28 02:42:26;;;;;;;4.03;1.30;;;23.30;39.20;;;;;;5069417;28;20176;-65
2023/07/28 02:44:53;;;;;;;1.73;1.10;;;23.60;39.00;;;;;;5071825;28;20187;-64
2023/07/28 02:47:21;;;;;;;2.47;1.10;;;23.40;39.10;;;;;;5072383;28;20560;-65
2023/07/28 02:49:48;;;;;;;2.47;1.30;;;23.10;39.70;;;;;;5069701;28;20532;-64
2023/07/28 02:52:15;;;;;;;3.80;1.27;;;23.20;40.30;;;;;;5071464;28;20213;-66
2023/07/28 02:54:43;;;;;;;3.00;1.47;;;23.40;39.00;;;;;;5070902;28;20545;-64
2023/07/28 02:57:10;;;;;;;3.17;1.20;;;23.50;38.90;;;;;;5072677;28;20258;-64
2023/07/28 02:59:37;;;;;;;3.20;1.30;;;23.50;39.30;;;;;;5071822;28;20179;-64
2023/07/28 03:02:05;;;;;;;5.07;1.60;;;23.60;38.60;;;;;;5070926;28;20919;-63
2023/07/28 03:04:32;;;;;;;2.10;1.17;;;23.60;38.50;;;;;;5071916;28;20239;-64
2023/07/28 03:06:59;;;;;;;2.43;1.40;;;23.80;38.00;;;;;;5071488;28;20519;-64
2023/07/28 03:09:27;;;;;;;3.37;1.57;;;24.20;38.20;;;;;;5069519;28;20549;-65
2023/07/28 03:11:55;;;;;;;2.70;1.40;;;24.40;37.10;;;;;;5071569;28;20179;-65
2023/07/28 03:14:22;;;;;;;1.93;1.30;;;24.60;37.00;;;;;;5072882;28;20225;-64
2023/07/28 03:16:50;;;;;;;2.57;1.10;;;24.90;36.90;;;;;;5071459;28;20252;-66
2023/07/28 03:19:17;;;;;;;2.07;1.57;;;24.80;36.60;;;;;;5071721;28;20186;-66
2023/07/28 03:21:44;;;;;;;4.70;1.83;;;24.90;36.10;;;;;;5071294;28;20177;-64
2023/07/28 03:24:12;;;;;;;2.77;1.53;;;24.80;36.50;;;;;;5085472;28;20179;-64
2023/07/28 03:26:39;;;;;;;2.83;1.50;;;24.50;37.30;;;;;;5071217;28;20196;-64
2023/07/28 03:29:06;;;;;;;4.00;1.50;;;24.90;37.00;;;;;;5070427;28;20184;-64
2023/07/28 03:31:35;;;;;;;6.03;1.40;;;24.90;36.60;;;;;;5065922;28;20280;-64
2023/07/28 03:34:04;;;;;;;4.40;1.87;;;24.80;36.90;;;;;;5070174;28;20584;-64
2023/07/28 03:36:31;;;;;;;1.93;1.57;;;25.00;36.70;;;;;;5070722;28;20641;-64
2023/07/28 03:38:59;;;;;;;3.27;1.63;;;25.10;36.30;;;;;;5070246;28;20186;-64
2023/07/28 03:41:26;;;;;;;2.83;1.13;;;25.90;35.90;;;;;;5071195;28;20194;-65
2023/07/28 03:43:53;;;;;;;2.00;0.80;;;25.90;32.10;;;;;;5069276;28;20187;-65
2023/07/28 03:46:20;;;;;;;1.47;0.80;;;25.90;32.20;;;;;;5071663;28;20254;-64
2023/07/28 03:48:48;;;;;;;7.13;1.30;;;25.80;32.10;;;;;;5071655;28;20228;-64
2023/07/28 03:51:15;;;;;;;2.67;0.93;;;25.40;32.70;;;;;;5068480;28;20232;-63
2023/07/28 03:53:42;;;;;;;4.23;0.93;;;24.90;33.30;;;;;;5070088;28;20207;-67
2023/07/28 03:56:11;;;;;;;1.47;0.80;;;24.30;34.70;;;;;;5071190;28;20195;-72
2023/07/28 03:58:38;;;;;;;3.97;0.90;;;24.30;34.80;;;;;;5069916;28;20195;-64
2023/07/28 04:01:07;;;;;;;2.17;0.80;;;24.70;34.30;;;;;;5069909;28;20870;-67
2023/07/28 04:03:34;;;;;;;2.83;0.80;;;24.80;33.90;;;;;;5069398;28;20219;-64
2023/07/28 04:06:06;;;;;;;4.03;1.40;;;24.90;33.60;;;;;;5073864;28;20251;-68
2023/07/28 04:08:34;;;;;;;3.87;1.00;;;24.70;34.40;;;;;;5074546;28;20633;-70
2023/07/28 04:11:01;;;;;;;5.30;1.10;;;24.30;34.70;;;;;;5074874;28;20207;-67
2023/07/28 04:13:28;;;;;;;1.60;0.80;;;23.90;35.20;;;;;;5074809;28;20697;-65
2023/07/28 04:15:56;;;;;;;2.73;1.00;;;23.70;35.60;;;;;;5072350;28;20187;-65
2023/07/28 04:18:23;;;;;;;3.73;1.33;;;23.80;35.60;;;;;;5073518;28;20206;-66
2023/07/28 04:20:50;;;;;;;2.60;1.10;;;23.70;35.70;;;;;;5074704;28;20186;-65
2023/07/28 04:23:18;;;;;;;1.63;1.03;;;23.70;35.80;;;;;;5073700;28;20248;-66
2023/07/28 04:25:45;;;;;;;4.90;1.20;;;24.30;35.40;;;;;;5072907;28;20648;-64
2023/07/28 04:28:12;;;;;;;4.90;1.50;;;25.30;34.00;;;;;;5072907;28;20192;-65
2023/07/28 04:30:40;;;;;;;3.43;0.90;;;25.80;32.50;;;;;;5072151;28;20191;-66
2023/07/28 04:33:08;;;;;;;3.33;1.07;;;25.40;33.30;;;;;;5073037;28;20618;-64
2023/07/28 04:35:36;;;;;;;2.20;1.00;;;25.10;33.60;;;;;;5072840;28;20180;-74
2023/07/28 04:38:03;;;;;;;3.17;0.97;;;24.80;34.20;;;;;;5073994;28;20539;-65
2023/07/28 04:40:30;;;;;;;6.20;1.40;;;25.50;33.70;;;;;;5074662;28;20186;-68
2023/07/28 04:42:58;;;;;;;3.47;0.97;;;26.20;32.50;;;;;;5072635;28;21118;-68
2023/07/28 04:45:25;;;;;;;2.07;0.90;;;26.40;32.10;;;;;;5074680;28;20172;-72
2023/07/28 04:47:54;;;;;;;2.87;1.07;;;26.50;31.30;;;;;;5074196;28;20218;-69
2023/07/28 04:50:21;;;;;;;1.80;1.00;;;27.00;31.00;;;;;;5069367;28;20264;-73
2023/07/28 04:52:48;;;;;;;3.70;1.00;;;26.30;31.30;;;;;;5073768;28;20264;-69
2023/07/28 04:55:16;;;;;;;2.13;1.10;;;26.40;31.60;;;;;;5073284;28;20215;-71
2023/07/28 04:57:44;;;;;;;1.83;0.80;;;26.30;31.80;;;;;;5074025;28;20187;-65
2023/07/28 05:00:12;;;;;;;4.33;1.00;;;25.40;32.90;;;;;;5073270;28;20193;-66
2023/07/28 05:02:39;;;;;;;2.27;0.83;;;24.90;34.10;;;;;;5073317;28;20194;-70
2023/07/28 05:05:07;;;;;;;1.83;0.80;;;24.20;35.20;;;;;;5073237;28;20194;-74
2023/07/28 05:07:34;;;;;;;4.30;1.07;;;23.80;35.90;;;;;;5069691;28;20240;-68
2023/07/28 05:10:02;;;;;;;5.27;1.00;;;23.60;36.20;;;;;;5072695;28;20191;-75
2023/07/28 05:12:30;;;;;;;1.63;0.80;;;23.50;36.70;;;;;;5074473;28;20207;-68
2023/07/28 05:14:57;;;;;;;3.67;0.80;;;23.50;36.90;;;;;;5073321;28;20266;-66
2023/07/28 05:17:24;;;;;;;3.87;1.00;;;23.30;36.70;;;;;;5073169;28;20653;-63
2023/07/28 05:19:52;;;;;;;1.03;0.80;;;23.30;37.00;;;;;;5073782;28;20190;-65
2023/07/28 05:22:19;;;;;;;4.00;1.00;;;23.50;36.70;;;;;;5073908;28;20590;-64
2023/07/28 05:24:46;;;;;;;2.97;1.10;;;24.00;35.40;;;;;;5073323;28;20198;-66
2023/07/28 05:27:14;;;;;;;3.47;1.20;;;23.50;36.40;;;;;;5072754;28;20179;-66
2023/07/28 05:29:41;;;;;;;4.53;1.43;;;23.20;37.10;;;;;;5074199;28;20191;-65
2023/07/28 05:32:09;;;;;;;3.10;1.30;;;23.00;37.40;;;;;;5073554;28;20247;-66
2023/07/28 05:34:36;;;;;;;5.27;1.30;;;23.00;37.60;;;;;;5073877;28;20544;-65
2023/07/28 05:37:04;;;;;;;1.90;1.10;;;23.00;37.60;;;;;;5073460;28;20191;-64
2023/07/28 05:39:31;;;;;;;3.10;1.20;;;23.20;37.50;;;;;;5073223;28;20191;-65
2023/07/28 05:41:58;;;;;;;4.57;1.10;;;23.50;37.00;;;;;;5073177;28;20725;-64
2023/07/28 05:44:25;;;;;;;1.80;1.10;;;23.30;37.30;;;;;;5073291;28;20232;-67
2023/07/28 05:46:53;;;;;;;3.83;1.00;;;23.30;37.30;;;;;;5073872;28;20193;-64
2023/07/28 05:49:20;;;;;;;5.23;1.13;;;23.20;37.80;;;;;;5073606;28;20225;-67
2023/07/28 05:51:47;;;;;;;3.20;1.10;;;23.30;37.60;;;;;;5073218;28;20175;-65
2023/07/28 05:54:15;;;;;;;2.30;0.97;;;23.10;37.80;;;;;;5072395;28;20219;-65
2023/07/28 05:56:43;;;;;;;2.07;1.03;;;22.90;38.80;;;;;;5073138;28;20565;-64
2023/07/28 05:59:10;;;;;;;1.40;0.70;;;22.70;39.50;;;;;;5073134;28;20548;-64
2023/07/28 06:01:37;;;;;;;4.97;0.80;;;22.50;39.80;;;;;;5072504;28;20186;-65
2023/07/28 06:04:05;;;;;;;2.30;0.83;;;22.30;40.20;;;;;;5073269;28;20345;-65
2023/07/28 06:06:32;;;;;;;1.57;0.80;;;22.30;40.40;;;;;;5071970;28;20198;-65
2023/07/28 06:08:59;;;;;;;2.50;0.90;;;22.20;40.60;;;;;;5071630;28;20182;-64
2023/07/28 06:11:28;;;;;;;2.30;1.23;;;22.10;40.80;;;;;;5066990;28;20552;-65
2023/07/28 06:13:55;;;;;;;2.33;1.00;;;22.00;41.10;;;;;;5072671;28;20226;-64
2023/07/28 06:16:22;;;;;;;2.83;0.80;;;21.90;41.20;;;;;;5073204;28;20621;-63
2023/07/28 06:18:50;;;;;;;5.43;0.90;;;21.80;41.60;;;;;;5072483;28;20526;-64
2023/07/28 06:21:17;;;;;;;1.10;0.70;;;21.80;41.60;;;;;;5074442;28;20278;-67
2023/07/28 06:23:46;;;;;;;3.40;0.90;;;21.70;41.90;;;;;;5072261;28;20199;-65
2023/07/28 06:26:13;;;;;;;1.97;1.20;;;21.60;42.00;;;;;;5072800;28;20645;-64
2023/07/28 06:28:40;;;;;;;1.33;0.80;;;21.50;42.30;;;;;;5072679;28;20237;-64
2023/07/28 06:31:11;;;;;;;2.90;0.80;;;21.50;42.60;;;;;;5072860;28;20291;-63
2023/07/28 06:33:38;;;;;;;4.43;0.90;;;21.40;42.90;;;;;;5072494;28;20207;-65
2023/07/28 06:36:06;;;;;;;3.97;1.00;;;21.30;42.90;;;;;;5072125;28;20198;-65
2023/07/28 06:38:33;;;;;;;3.90;0.87;;;21.30;43.40;;;;;;5072496;28;20187;-65
2023/07/28 06:41:01;;;;;;;1.80;0.80;;;21.20;43.50;;;;;;5071962;28;20183;-63
2023/07/28 06:43:28;;;;;;;2.07;1.00;;;21.20;43.60;;;;;;5072175;28;20183;-64
2023/07/28 06:45:55;;;;;;;2.10;0.93;;;21.10;44.00;;;;;;5071882;28;20190;-65
2023/07/28 06:48:23;;;;;;;3.03;1.07;;;21.00;44.10;;;;;;5072388;28;20258;-68
2023/07/28 06:50:50;;;;;;;1.80;0.87;;;20.90;44.40;;;;;;5068353;28;20175;-66
2023/07/28 06:53:18;;;;;;;1.47;0.73;;;20.90;44.70;;;;;;5072030;28;20250;-67
2023/07/28 06:55:45;;;;;;;2.00;0.87;;;20.80;44.80;;;;;;5072088;28;20183;-65
2023/07/28 06:58:12;;;;;;;1.33;0.80;;;20.80;45.00;;;;;;5072027;28;20305;-64
2023/07/28 07:00:39;;;;;;;4.40;0.80;;;20.80;45.30;;;;;;5072392;28;20599;-65
2023/07/28 07:03:07;;;;;;;1.60;0.83;;;20.70;45.50;;;;;;5071955;28;20195;-65
2023/07/28 07:05:34;;;;;;;7.07;1.00;;;20.70;45.60;;;;;;5071892;28;20167;-65
2023/07/28 07:08:01;;;;;;;3.33;1.10;;;20.60;45.90;;;;;;5071327;28;20179;-66
2023/07/28 07:10:30;;;;;;;6.30;1.03;;;20.60;46.10;;;;;;5071673;28;20175;-64
2023/07/28 07:12:57;;;;;;;3.10;0.73;;;20.50;46.40;;;;;;5071948;28;20249;-65
2023/07/28 07:15:25;;;;;;;3.63;0.90;;;20.40;46.40;;;;;;5071559;28;20265;-64
2023/07/28 07:17:52;;;;;;;1.60;1.00;;;20.40;46.40;;;;;;5070457;28;20747;-64
2023/07/28 07:20:20;;;;;;;1.97;0.90;;;20.30;46.80;;;;;;5071856;28;20182;-64
2023/07/28 07:22:47;;;;;;;3.50;1.10;;;20.30;47.00;;;;;;5071444;28;20656;-71
2023/07/28 07:25:14;;;;;;;3.50;1.07;;;20.30;47.40;;;;;;5071257;28;20220;-64
2023/07/28 07:27:42;;;;;;;4.53;1.07;;;20.20;47.50;;;;;;5073913;28;20178;-70
2023/07/28 07:30:09;;;;;;;8.90;1.20;;;20.20;47.50;;;;;;5072173;28;20332;-70
2023/07/28 07:32:37;;;;;;;3.13;1.03;;;20.10;47.70;;;;;;5071155;28;20234;-66
2023/07/28 07:35:04;;;;;;;1.80;1.10;;;20.10;47.80;;;;;;5071113;28;20329;-63
2023/07/28 07:37:32;;;;;;;2.87;1.03;;;20.00;47.70;;;;;;5069757;28;20171;-71
2023/07/28 07:40:03;;;;;;;1.67;1.10;;;20.00;48.00;;;;;;5071006;28;20191;-65
2023/07/28 07:42:42;;;;;;;1.50;0.93;;;19.90;48.30;;;;;;5070940;28;20249;-64
2023/07/28 07:45:11;;;;;;;4.37;1.20;;;19.80;48.50;;;;;;5072108;28;20182;-67
2023/07/28 07:47:40;;;;;;;3.03;1.30;;;19.80;48.90;;;;;;5070540;28;20183;-66
2023/07/28 07:50:13;;;;;;;2.97;1.40;;;19.70;48.90;;;;;;5071289;28;20228;-73
2023/07/28 07:52:40;;;;;;;2.90;1.23;;;19.70;49.20;;;;;;5071020;28;20226;-69
2023/07/28 07:55:09;;;;;;;5.57;1.37;;;19.60;49.20;;;;;;5071429;28;20195;-65
2023/07/28 07:57:37;;;;;;;2.57;1.23;;;19.50;49.60;;;;;;5071008;28;20282;-65
2023/07/28 08:00:05;;;;;;;4.40;1.20;;;19.50;49.80;;;;;;5071004;28;20776;-65
2023/07/28 08:02:32;;;;;;;3.03;1.40;;;19.40;50.10;;;;;;5072164;28;20587;-65
2023/07/28 08:04:59;;;;;;;3.50;1.10;;;19.30;50.40;;;;;;5071158;28;20266;-67
2023/07/28 08:07:27;;;;;;;3.17;1.07;;;19.30;50.50;;;;;;5070457;28;20175;-64
2023/07/28 08:09:54;;;;;;;2.93;1.50;;;19.20;51.10;;;;;;5069811;28;20183;-64
2023/07/28 08:12:22;;;;;;;5.17;2.37;;;19.10;52.60;;;;;;5065242;28;20669;-65
2023/07/28 08:14:49;;;;;;;6.90;2.57;;;19.10;52.90;;;;;;5069802;28;20179;-64
2023/07/28 08:17:16;;;;;;;3.60;1.87;;;18.90;53.00;;;;;;5066719;28;20180;-65
2023/07/28 08:19:44;;;;;;;5.27;1.70;;;18.80;53.30;;;;;;5068160;28;20187;-65
2023/07/28 08:22:12;;;;;;;5.50;2.40;;;18.70;53.30;;;;;;5070814;28;20198;-64
2023/07/28 08:24:39;;;;;;;2.50;2.20;;;18.60;53.70;;;;;;5069767;28;20179;-73
2023/07/28 08:27:07;;;;;;;2.70;1.97;;;18.40;54.10;;;;;;5070373;28;20202;-65
2023/07/28 08:29:34;;;;;;;5.03;2.40;;;18.30;54.50;;;;;;5068924;28;20183;-64
2023/07/28 08:32:02;;;;;;;4.03;1.80;;;18.20;55.10;;;;;;5069282;28;20306;-64
2023/07/28 08:34:29;;;;;;;5.63;2.10;;;18.20;55.20;;;;;;5070320;28;20284;-64
2023/07/28 08:36:56;;;;;;;3.53;1.90;;;18.10;55.60;;;;;;5070948;28;20183;-64
2023/07/28 08:39:23;;;;;;;5.53;1.73;;;18.00;55.80;;;;;;5070718;28;20717;-65
2023/07/28 08:41:59;;;;;;;4.60;2.00;;;18.00;56.00;;;;;;5068795;28;20180;-65
2023/07/28 08:44:27;;;;;;;3.53;1.80;;;18.00;56.20;;;;;;5070160;28;20175;-64
2023/07/28 08:46:54;;;;;;;7.90;2.00;;;17.90;56.50;;;;;;5068683;28;20187;-65
2023/07/28 08:49:21;;;;;;;3.90;1.90;;;18.00;55.90;;;;;;5068983;28;20175;-65
2023/07/28 08:51:52;;;;;;;4.13;1.90;;;17.90;56.10;;;;;;5065755;28;20182;-64
2023/07/28 08:54:20;;;;;;;4.10;2.40;;;17.80;56.60;;;;;;5074841;28;20215;-65
2023/07/28 08:56:47;;;;;;;3.63;1.73;;;17.80;57.10;;;;;;5073094;28;20185;-64
2023/07/28 08:59:22;;;;;;;4.77;2.10;;;17.80;57.40;;;;;;5071343;28;20199;-65
2023/07/28 09:01:59;;;;;;;4.80;2.90;;;17.80;57.70;;;;;;5072134;28;20191;-65
2023/07/28 09:04:26;;;;;;;9.77;4.13;;;17.80;58.00;;;;;;5074444;28;20653;-64
2023/07/28 09:06:54;;;;;;;11.27;4.10;;;17.80;57.80;;;;;;5072696;28;20512;-65
2023/07/28 09:09:24;;;;;;;9.60;3.50;;;17.80;58.30;;;;;;5071926;28;20182;-65
2023/07/28 09:11:54;;;;;;;10.10;3.03;;;17.80;58.20;;;;;;5074330;28;20236;-64
2023/07/28 09:14:25;;;;;;;4.97;2.47;;;17.70;58.00;;;;;;5073874;28;20215;-65
2023/07/28 09:16:53;;;;;;;3.43;2.30;;;17.70;58.60;;;;;;5072363;28;20211;-64
2023/07/28 09:19:21;;;;;;;9.60;2.77;;;17.50;59.00;;;;;;5071046;28;20539;-64
2023/07/28 09:22:02;;;;;;;7.20;2.90;;;17.50;58.60;;;;;;5071945;28;20182;-64
2023/07/28 09:24:34;;;;;;;7.13;2.80;;;17.50;58.40;;;;;;5072827;28;20618;-64
2023/07/28 09:27:02;;;;;;;4.93;2.77;;;17.70;58.50;;;;;;5072197;28;20213;-64
2023/07/28 09:29:29;;;;;;;4.97;2.60;;;17.60;58.80;;;;;;5072431;28;20604;-64
2023/07/28 09:32:07;;;;;;;5.00;2.73;;;17.70;58.70;;;;;;5072646;28;20238;-65
2023/07/28 09:34:34;;;;;;;8.47;2.97;;;17.70;58.60;;;;;;5072537;28;20214;-65
2023/07/28 09:37:01;;;;;;;3.40;2.30;;;17.80;58.70;;;;;;5072635;28;20176;-66
2023/07/28 09:39:31;;;;;;;4.90;2.60;;;17.80;58.70;;;;;;5071356;28;20186;-65
2023/07/28 09:42:00;;;;;;;8.10;3.40;;;17.70;58.40;;;;;;5072784;28;20175;-69
2023/07/28 09:44:27;;;;;;;7.27;3.27;;;17.70;58.80;;;;;;5074309;28;20272;-67
2023/07/28 09:46:58;;;;;;;6.90;2.90;;;17.70;58.60;;;;;;5072855;28;20258;-67
2023/07/28 09:49:42;;;;;;;6.97;3.70;;;17.60;58.70;;;;;;5072036;28;20206;-66
2023/07/28 09:52:14;;;;;;;5.73;3.60;;;17.60;58.80;;;;;;5073162;28;20172;-65
2023/07/28 09:54:43;;;;;;;7.00;4.70;;;17.60;59.20;;;;;;5071497;28;20219;-65
2023/07/28 09:57:15;;;;;;;7.47;4.13;;;17.60;59.40;;;;;;5072809;28;20266;-67
2023/07/28 09:59:45;;;;;;;6.13;3.87;;;17.50;59.90;;;;;;5070985;28;20186;-68
2023/07/28 10:02:13;;;;;;;5.50;2.93;;;17.50;60.30;;;;;;5066030;28;20193;-68
2023/07/28 10:04:41;;;;;;;5.77;3.10;;;17.50;60.60;;;;;;5068668;28;20192;-68
2023/07/28 10:07:10;;;;;;;3.30;2.83;;;17.50;60.00;;;;;;5068402;28;20586;-66
2023/07/28 10:09:37;;;;;;;7.33;3.03;;;17.40;60.10;;;;;;5067847;28;20179;-66
2023/07/28 10:12:05;;;;;;;8.60;3.10;;;17.50;60.10;;;;;;5069396;28;20789;-68
2023/07/28 10:14:37;;;;;;;4.47;2.80;;;17.40;60.40;;;;;;5072603;28;20643;-74
2023/07/28 10:17:07;;;;;;;3.50;2.80;;;17.40;60.20;;;;;;5070450;28;20190;-69
2023/07/28 10:19:39;;;;;;;8.37;3.13;;;17.30;60.20;;;;;;5071576;28;20176;-67
2023/07/28 10:22:11;;;;;;;5.00;2.90;;;17.30;60.00;;;;;;5071492;28;20183;-71
2023/07/28 10:24:58;;;;;;;7.73;3.27;;;17.30;60.30;;;;;;5072460;28;20236;-67
2023/07/28 10:27:32;;;;;;;7.63;3.33;;;17.30;60.20;;;;;;5081930;28;20179;-68
2023/07/28 10:30:05;;;;;;;6.33;3.30;;;17.30;60.30;;;;;;5071662;28;20531;-69
2023/07/28 10:32:44;;;;;;;5.03;2.80;;;17.30;60.10;;;;;;5072731;28;20234;-71
2023/07/28 10:35:17;;;;;;;4.67;3.00;;;17.30;60.10;;;;;;5070571;28;20198;-65
2023/07/28 10:37:47;;;;;;;5.07;3.37;;;17.30;60.30;;;;;;5073161;28;20182;-65
2023/07/28 10:40:38;;;;;;;7.97;3.00;;;17.30;60.20;;;;;;5069791;28;20193;-67
2023/07/28 10:43:07;;;;;;;6.87;3.17;;;17.30;60.70;;;;;;5071468;28;20699;-65
2023/07/28 10:45:35;;;;;;;10.43;3.43;;;17.30;60.60;;;;;;5068376;28;20275;-65
2023/07/28 10:48:03;;;;;;;7.67;3.20;;;17.30;61.10;;;;;;5073082;28;20236;-65
2023/07/28 10:50:31;;;;;;;4.90;3.33;;;17.30;61.00;;;;;;5074286;28;20190;-65
2023/07/28 10:52:59;;;;;;;6.67;3.40;;;17.30;61.00;;;;;;5066307;28;20211;-66
2023/07/28 10:55:27;;;;;;;8.27;3.50;;;17.30;61.30;;;;;;5074958;28;20187;-64
2023/07/28 10:57:58;;;;;;;7.37;4.17;;;17.20;61.50;;;;;;5070539;28;20186;-65
2023/07/28 11:00:25;;;;;;;7.80;4.87;;;17.20;62.10;;;;;;5070881;28;20201;-65
2023/07/28 11:02:54;;;;;;;10.23;4.10;;;17.20;61.80;;;;;;5070064;28;20190;-64
2023/07/28 11:05:23;;;;;;;8.30;3.13;;;17.30;62.10;;;;;;5069073;28;20197;-66
2023/07/28 11:07:58;;;;;;;8.30;3.40;;;17.20;60.40;;;;;;5070789;28;20201;-65
2023/07/28 11:10:30;;;;;;;13.37;3.30;;;17.30;60.00;;;;;;5071070;28;20192;-65
2023/07/28 11:13:03;;;;;;;9.50;3.30;;;17.20;59.80;;;;;;5071246;28;20672;-65
2023/07/28 11:15:31;;;;;;;9.53;3.53;;;17.20;60.00;;;;;;5070282;28;20637;-69
2023/07/28 11:17:58;;;;;;;7.67;3.57;;;17.20;60.00;;;;;;5068106;28;20688;-65
2023/07/28 11:20:30;;;;;;;5.80;3.13;;;17.20;60.40;;;;;;5070698;28;20179;-64
2023/07/28 11:23:01;;;;;;;4.77;2.83;;;17.20;59.70;;;;;;5068551;28;20187;-65
2023/07/28 11:25:30;;;;;;;6.83;3.13;;;17.20;59.70;;;;;;5070685;28;20185;-64
2023/07/28 11:27:58;;;;;;;8.37;3.37;;;17.20;59.30;;;;;;5071746;28;20185;-64
2023/07/28 11:30:25;;;;;;;7.70;2.83;;;17.20;59.10;;;;;;5070893;28;20269;-64
2023/07/28 11:32:53;;;;;;;4.47;2.77;;;17.20;59.00;;;;;;5071112;28;20231;-64
2023/07/28 11:35:23;;;;;;;8.20;3.30;;;17.20;59.00;;;;;;5071943;28;20205;-64
2023/07/28 11:37:53;;;;;;;6.07;2.97;;;17.20;59.10;;;;;;5071204;28;20191;-64
2023/07/28 11:40:25;;;;;;;9.37;3.40;;;17.20;59.10;;;;;;5070813;28;20181;-64
2023/07/28 11:42:56;;;;;;;7.83;3.07;;;17.20;59.50;;;;;;5070882;28;20192;-64
2023/07/28 11:45:24;;;;;;;8.33;3.77;;;17.20;59.30;;;;;;5071706;28;20189;-64
2023/07/28 11:47:57;;;;;;;11.40;4.13;;;17.20;59.00;;;;;;5070270;28;20183;-64
2023/07/28 11:50:29;;;;;;;12.27;3.97;;;17.20;59.00;;;;;;5069266;28;20183;-65
2023/07/28 11:52:58;;;;;;;9.47;3.40;;;17.20;59.00;;;;;;5065178;28;20222;-64
2023/07/28 11:55:26;;;;;;;10.40;4.73;;;17.20;59.10;;;;;;5070079;28;20183;-64
2023/07/28 11:57:54;;;;;;;10.73;4.73;;;17.20;59.00;;;;;;5070696;28;20194;-65
2023/07/28 12:00:34;;;;;;;10.23;4.33;;;17.20;58.80;;;;;;5070962;28;20179;-64
2023/07/28 12:03:09;;;;;;;13.00;5.53;;;17.20;59.10;;;;;;5069884;28;20209;-64
2023/07/28 12:05:38;;;;;;;12.90;5.07;;;17.10;59.30;;;;;;5070755;28;20539;-65
2023/07/28 12:08:07;;;;;;;11.60;5.03;;;17.10;59.30;;;;;;5069121;28;20191;-66
2023/07/28 12:10:35;;;;;;;10.80;4.70;;;17.10;59.70;;;;;;5071218;28;20265;-65
2023/07/28 12:13:07;;;;;;;19.63;5.13;;;17.10;59.40;;;;;;5070418;28;20210;-65
2023/07/28 12:15:40;;;;;;;11.50;4.50;;;17.00;59.60;;;;;;5069950;28;20271;-65
2023/07/28 12:18:18;;;;;;;13.73;5.10;;;17.10;59.70;;;;;;5068272;28;20245;-66
2023/07/28 12:20:51;;;;;;;8.47;5.10;;;17.00;59.90;;;;;;5068337;28;20198;-65
2023/07/28 12:23:20;;;;;;;11.50;6.10;;;17.00;60.20;;;;;;5068169;28;20202;-65
2023/07/28 12:25:48;;;;;;;10.33;5.30;;;16.90;60.20;;;;;;5067805;28;20213;-65
2023/07/28 12:28:16;;;;;;;9.90;5.03;;;16.90;60.40;;;;;;5073776;28;20195;-64
2023/07/28 12:30:44;;;;;;;9.43;5.10;;;16.90;60.00;;;;;;5078009;28;20304;-65
2023/07/28 12:33:12;;;;;;;8.20;4.67;;;16.80;60.20;;;;;;5078738;28;20291;-67
2023/07/28 12:35:39;;;;;;;9.53;4.43;;;16.80;60.10;;;;;;5080071;28;20676;-69
2023/07/28 12:38:07;;;;;;;13.27;4.70;;;16.80;60.20;;;;;;5081407;28;20214;-67
2023/07/28 12:40:35;;;;;;;14.47;5.43;;;16.80;60.30;;;;;;5078056;28;20269;-74
2023/07/28 12:43:04;;;;;;;11.47;4.40;;;16.80;59.90;;;;;;5074356;28;20236;-67
2023/07/28 12:45:32;;;;;;;16.00;5.53;;;16.80;60.10;;;;;;5074550;28;20183;-75
2023/07/28 12:48:00;;;;;;;8.83;4.60;;;16.80;60.00;;;;;;5074546;28;20178;-71
2023/07/28 12:50:27;;;;;;;14.47;4.83;;;16.80;60.20;;;;;;5075642;28;20191;-69
2023/07/28 12:52:55;;;;;;;17.93;4.80;;;16.80;60.30;;;;;;5072890;28;20297;-66
2023/07/28 12:55:22;;;;;;;9.37;4.60;;;16.80;60.10;;;;;;5074542;28;20269;-69
2023/07/28 12:57:50;;;;;;;11.10;3.70;;;16.80;60.00;;;;;;5073706;28;20176;-65
2023/07/28 13:00:17;;;;;;;9.60;4.33;;;16.70;60.30;;;;;;5072568;28;20244;-71